sensor_id;sensor_type;location;lat;lon;timestamp;temperature;humidity
31038;DHT22;17702;47.590;7.666;2023-09-19T00:01:33;20.20;99.90
31038;DHT22;17702;47.590;7.666;2023-09-19T00:03:59;20.20;99.90
31038;DHT22;17702;47.590;7.666;2023-09-19T00:06:25;20.20;99.90
31038;DHT22;17702;47.590;7.666;2023-09-19T00:08:53;20.20;99.90
31038;DHT22;17702;47.590;7.666;2023-09-19T00:11:20;20.10;99.90
31038;DHT22;17702;47.590;7.666;2023-09-19T00:13:47;20.10;99.90
31038;DHT22;17702;47.590;7.666;2023-09-19T00:16:15;20.10;99.90
31038;DHT22;17702;47.590;7.666;2023-09-19T00:18:41;20.10;99.90
31038;DHT22;17702;47.590;7.666;2023-09-19T00:21:07;20.00;99.90
31038;DHT22;17702;47.590;7.666;2023-09-19T00:23:33;20.00;99.90
31038;DHT22;17702;47.590;7.666;2023-09-19T00:25:59;20.00;99.90
31038;DHT22;17702;47.590;7.666;2023-09-19T00:28:25;20.00;99.90
31038;DHT22;17702;47.590;7.666;2023-09-19T00:30:51;19.90;99.90
31038;DHT22;17702;47.590;7.666;2023-09-19T00:33:18;19.90;99.90
31038;DHT22;17702;47.590;7.666;2023-09-19T00:36:02;19.90;99.90
31038;DHT22;17702;47.590;7.666;2023-09-19T00:38:30;19.80;99.90
31038;DHT22;17702;47.590;7.666;2023-09-19T00:40:57;19.80;99.90
31038;DHT22;17702;47.590;7.666;2023-09-19T00:43:25;19.80;99.90
31038;DHT22;17702;47.590;7.666;2023-09-19T00:45:53;19.70;99.90
31038;DHT22;17702;47.590;7.666;2023-09-19T00:48:21;19.70;99.90
31038;DHT22;17702;47.590;7.666;2023-09-19T00:50:48;19.60;99.90
31038;DHT22;17702;47.590;7.666;2023-09-19T00:53:18;19.50;99.90
31038;DHT22;17702;47.590;7.666;2023-09-19T00:55:48;19.50;99.90
31038;DHT22;17702;47.590;7.666;2023-09-19T00:58:16;19.50;99.90
31038;DHT22;17702;47.590;7.666;2023-09-19T01:00:43;19.50;99.90
31038;DHT22;17702;47.590;7.666;2023-09-19T01:03:10;19.50;99.90
31038;DHT22;17702;47.590;7.666;2023-09-19T01:05:36;19.40;99.90
31038;DHT22;17702;47.590;7.666;2023-09-19T01:08:02;19.40;99.90
31038;DHT22;17702;47.590;7.666;2023-09-19T01:10:28;19.30;99.90
31038;DHT22;17702;47.590;7.666;2023-09-19T01:27:17;19.20;99.90
31038;DHT22;17702;47.590;7.666;2023-09-19T01:29:49;19.20;99.90
31038;DHT22;17702;47.590;7.666;2023-09-19T01:32:17;19.20;99.90
31038;DHT22;17702;47.590;7.666;2023-09-19T01:34:48;19.30;99.90
31038;DHT22;17702;47.590;7.666;2023-09-19T01:37:15;19.30;99.90
31038;DHT22;17702;47.590;7.666;2023-09-19T01:39:46;19.30;99.90
31038;DHT22;17702;47.590;7.666;2023-09-19T01:42:38;19.40;99.90
31038;DHT22;17702;47.590;7.666;2023-09-19T01:48:05;19.40;99.90
31038;DHT22;17702;47.590;7.666;2023-09-19T01:50:43;19.50;99.90
31038;DHT22;17702;47.590;7.666;2023-09-19T01:53:30;19.50;99.90
31038;DHT22;17702;47.590;7.666;2023-09-19T01:55:59;19.50;99.90
31038;DHT22;17702;47.590;7.666;2023-09-19T01:58:37;19.50;99.90
31038;DHT22;17702;47.590;7.666;2023-09-19T02:01:04;19.50;99.90
31038;DHT22;17702;47.590;7.666;2023-09-19T02:03:33;19.40;99.90
31038;DHT22;17702;47.590;7.666;2023-09-19T02:06:00;19.40;99.90
31038;DHT22;17702;47.590;7.666;2023-09-19T02:08:26;19.30;99.90
31038;DHT22;17702;47.590;7.666;2023-09-19T02:10:52;19.30;99.90
31038;DHT22;17702;47.590;7.666;2023-09-19T02:13:22;19.30;99.90
31038;DHT22;17702;47.590;7.666;2023-09-19T02:15:52;19.30;99.90
31038;DHT22;17702;47.590;7.666;2023-09-19T02:18:17;19.30;99.90
31038;DHT22;17702;47.590;7.666;2023-09-19T02:20:43;19.40;99.90
31038;DHT22;17702;47.590;7.666;2023-09-19T02:23:10;19.40;99.90
31038;DHT22;17702;47.590;7.666;2023-09-19T02:25:36;19.40;99.90
31038;DHT22;17702;47.590;7.666;2023-09-19T02:28:03;19.40;99.90
31038;DHT22;17702;47.590;7.666;2023-09-19T02:30:29;19.40;99.90
31038;DHT22;17702;47.590;7.666;2023-09-19T02:32:55;19.40;99.90
31038;DHT22;17702;47.590;7.666;2023-09-19T02:35:21;19.40;99.90
31038;DHT22;17702;47.590;7.666;2023-09-19T02:37:48;19.40;99.90
31038;DHT22;17702;47.590;7.666;2023-09-19T02:40:14;19.40;99.90
31038;DHT22;17702;47.590;7.666;2023-09-19T02:42:47;19.40;99.90
31038;DHT22;17702;47.590;7.666;2023-09-19T02:45:16;19.40;99.90
31038;DHT22;17702;47.590;7.666;2023-09-19T02:47:44;19.40;99.90
31038;DHT22;17702;47.590;7.666;2023-09-19T02:50:10;19.50;99.90
31038;DHT22;17702;47.590;7.666;2023-09-19T02:52:45;19.50;99.90
31038;DHT22;17702;47.590;7.666;2023-09-19T02:55:14;19.50;99.90
31038;DHT22;17702;47.590;7.666;2023-09-19T02:57:52;19.50;99.90
31038;DHT22;17702;47.590;7.666;2023-09-19T03:00:20;19.50;99.90
31038;DHT22;17702;47.590;7.666;2023-09-19T03:02:50;19.50;99.90
31038;DHT22;17702;47.590;7.666;2023-09-19T03:05:17;19.50;99.90
31038;DHT22;17702;47.590;7.666;2023-09-19T03:07:43;19.50;99.90
31038;DHT22;17702;47.590;7.666;2023-09-19T03:10:11;19.50;99.90
31038;DHT22;17702;47.590;7.666;2023-09-19T03:12:36;19.40;99.90
31038;DHT22;17702;47.590;7.666;2023-09-19T03:15:03;19.40;99.90
31038;DHT22;17702;47.590;7.666;2023-09-19T03:17:30;19.50;99.90
31038;DHT22;17702;47.590;7.666;2023-09-19T03:19:55;19.50;99.90
31038;DHT22;17702;47.590;7.666;2023-09-19T03:22:22;19.60;99.90
31038;DHT22;17702;47.590;7.666;2023-09-19T03:24:48;19.50;99.90
31038;DHT22;17702;47.590;7.666;2023-09-19T03:27:13;19.60;99.90
31038;DHT22;17702;47.590;7.666;2023-09-19T03:29:39;19.60;99.90
31038;DHT22;17702;47.590;7.666;2023-09-19T03:32:05;19.70;99.90
31038;DHT22;17702;47.590;7.666;2023-09-19T03:34:31;19.60;99.90
31038;DHT22;17702;47.590;7.666;2023-09-19T03:36:56;19.60;99.90
31038;DHT22;17702;47.590;7.666;2023-09-19T03:39:22;19.70;99.90
31038;DHT22;17702;47.590;7.666;2023-09-19T03:41:48;19.70;99.90
31038;DHT22;17702;47.590;7.666;2023-09-19T03:44:15;19.70;99.90
31038;DHT22;17702;47.590;7.666;2023-09-19T03:46:40;19.80;99.90
31038;DHT22;17702;47.590;7.666;2023-09-19T03:49:06;19.80;99.90
31038;DHT22;17702;47.590;7.666;2023-09-19T03:51:32;19.70;99.90
31038;DHT22;17702;47.590;7.666;2023-09-19T03:53:59;19.70;99.90
31038;DHT22;17702;47.590;7.666;2023-09-19T03:56:25;19.80;99.90
31038;DHT22;17702;47.590;7.666;2023-09-19T03:58:51;19.70;99.90
31038;DHT22;17702;47.590;7.666;2023-09-19T04:01:16;19.70;99.90
31038;DHT22;17702;47.590;7.666;2023-09-19T04:03:43;19.80;99.90
31038;DHT22;17702;47.590;7.666;2023-09-19T04:06:17;19.70;99.90
31038;DHT22;17702;47.590;7.666;2023-09-19T04:08:43;19.70;99.90
31038;DHT22;17702;47.590;7.666;2023-09-19T04:11:10;19.80;99.90
31038;DHT22;17702;47.590;7.666;2023-09-19T04:13:35;19.80;99.90
31038;DHT22;17702;47.590;7.666;2023-09-19T04:16:02;19.80;99.90
31038;DHT22;17702;47.590;7.666;2023-09-19T04:18:29;19.80;99.90
31038;DHT22;17702;47.590;7.666;2023-09-19T04:20:57;19.80;99.90
31038;DHT22;17702;47.590;7.666;2023-09-19T04:23:22;19.80;99.90
31038;DHT22;17702;47.590;7.666;2023-09-19T04:25:48;19.80;99.90
31038;DHT22;17702;47.590;7.666;2023-09-19T04:28:14;19.80;99.90
31038;DHT22;17702;47.590;7.666;2023-09-19T04:30:41;19.80;99.90
31038;DHT22;17702;47.590;7.666;2023-09-19T04:33:07;19.80;99.90
31038;DHT22;17702;47.590;7.666;2023-09-19T04:35:33;19.80;99.90
31038;DHT22;17702;47.590;7.666;2023-09-19T04:37:58;19.70;99.90
31038;DHT22;17702;47.590;7.666;2023-09-19T04:40:24;19.70;99.90
31038;DHT22;17702;47.590;7.666;2023-09-19T04:42:57;19.70;99.90
31038;DHT22;17702;47.590;7.666;2023-09-19T04:45:23;19.70;99.90
31038;DHT22;17702;47.590;7.666;2023-09-19T04:47:48;19.70;99.90
31038;DHT22;17702;47.590;7.666;2023-09-19T04:50:14;19.70;99.90
31038;DHT22;17702;47.590;7.666;2023-09-19T04:52:41;19.70;99.90
31038;DHT22;17702;47.590;7.666;2023-09-19T04:55:09;19.70;99.90
31038;DHT22;17702;47.590;7.666;2023-09-19T04:57:35;19.70;99.90
31038;DHT22;17702;47.590;7.666;2023-09-19T05:00:02;19.70;99.90
31038;DHT22;17702;47.590;7.666;2023-09-19T05:02:32;19.70;99.90
31038;DHT22;17702;47.590;7.666;2023-09-19T05:05:00;19.60;99.90
31038;DHT22;17702;47.590;7.666;2023-09-19T05:07:25;19.70;99.90
31038;DHT22;17702;47.590;7.666;2023-09-19T05:09:51;19.60;99.90
31038;DHT22;17702;47.590;7.666;2023-09-19T05:12:17;19.60;99.90
31038;DHT22;17702;47.590;7.666;2023-09-19T05:14:45;19.50;99.90
31038;DHT22;17702;47.590;7.666;2023-09-19T05:17:10;19.50;99.90
31038;DHT22;17702;47.590;7.666;2023-09-19T05:19:36;19.40;99.90
31038;DHT22;17702;47.590;7.666;2023-09-19T05:22:04;19.40;99.90
31038;DHT22;17702;47.590;7.666;2023-09-19T05:24:30;19.40;99.90
31038;DHT22;17702;47.590;7.666;2023-09-19T05:26:56;19.40;99.90
31038;DHT22;17702;47.590;7.666;2023-09-19T05:29:22;19.40;99.90
31038;DHT22;17702;47.590;7.666;2023-09-19T05:31:48;19.40;99.90
31038;DHT22;17702;47.590;7.666;2023-09-19T05:34:15;19.40;99.90
31038;DHT22;17702;47.590;7.666;2023-09-19T05:36:40;19.40;99.90
31038;DHT22;17702;47.590;7.666;2023-09-19T05:39:07;19.40;99.90
31038;DHT22;17702;47.590;7.666;2023-09-19T05:41:35;19.50;99.90
31038;DHT22;17702;47.590;7.666;2023-09-19T05:44:02;19.50;99.90
31038;DHT22;17702;47.590;7.666;2023-09-19T05:46:28;19.60;99.90
31038;DHT22;17702;47.590;7.666;2023-09-19T05:48:55;19.60;99.90
31038;DHT22;17702;47.590;7.666;2023-09-19T05:51:22;19.60;99.90
31038;DHT22;17702;47.590;7.666;2023-09-19T05:53:48;19.60;99.90
31038;DHT22;17702;47.590;7.666;2023-09-19T05:56:14;19.50;99.90
31038;DHT22;17702;47.590;7.666;2023-09-19T05:58:40;19.60;99.90
31038;DHT22;17702;47.590;7.666;2023-09-19T06:01:09;19.60;99.90
31038;DHT22;17702;47.590;7.666;2023-09-19T06:03:35;19.60;99.90
31038;DHT22;17702;47.590;7.666;2023-09-19T06:06:04;19.60;99.90
31038;DHT22;17702;47.590;7.666;2023-09-19T06:08:32;19.60;99.90
31038;DHT22;17702;47.590;7.666;2023-09-19T06:10:59;19.60;99.90
31038;DHT22;17702;47.590;7.666;2023-09-19T06:13:25;19.60;99.90
31038;DHT22;17702;47.590;7.666;2023-09-19T06:15:52;19.70;99.90
31038;DHT22;17702;47.590;7.666;2023-09-19T06:18:17;19.70;99.90
31038;DHT22;17702;47.590;7.666;2023-09-19T06:20:47;19.70;99.90
31038;DHT22;17702;47.590;7.666;2023-09-19T06:23:13;19.70;99.90
31038;DHT22;17702;47.590;7.666;2023-09-19T06:25:38;19.70;99.90
31038;DHT22;17702;47.590;7.666;2023-09-19T06:28:04;19.70;99.90
31038;DHT22;17702;47.590;7.666;2023-09-19T06:30:31;19.70;99.90
31038;DHT22;17702;47.590;7.666;2023-09-19T06:32:58;19.70;99.90
31038;DHT22;17702;47.590;7.666;2023-09-19T06:35:24;19.70;99.90
31038;DHT22;17702;47.590;7.666;2023-09-19T06:37:51;19.70;99.90
31038;DHT22;17702;47.590;7.666;2023-09-19T06:40:18;19.70;99.90
31038;DHT22;17702;47.590;7.666;2023-09-19T06:42:46;19.70;99.90
31038;DHT22;17702;47.590;7.666;2023-09-19T06:45:13;19.70;99.90
31038;DHT22;17702;47.590;7.666;2023-09-19T06:47:43;19.80;99.90
31038;DHT22;17702;47.590;7.666;2023-09-19T06:50:10;19.70;99.90
31038;DHT22;17702;47.590;7.666;2023-09-19T06:52:40;19.60;99.90
31038;DHT22;17702;47.590;7.666;2023-09-19T06:55:06;19.60;99.90
31038;DHT22;17702;47.590;7.666;2023-09-19T06:57:32;19.40;99.90
31038;DHT22;17702;47.590;7.666;2023-09-19T06:59:58;19.50;99.90
31038;DHT22;17702;47.590;7.666;2023-09-19T07:02:23;19.50;99.90
31038;DHT22;17702;47.590;7.666;2023-09-19T07:04:49;19.50;99.90
31038;DHT22;17702;47.590;7.666;2023-09-19T07:07:15;19.60;99.90
31038;DHT22;17702;47.590;7.666;2023-09-19T07:09:41;19.50;99.90
31038;DHT22;17702;47.590;7.666;2023-09-19T07:12:07;19.50;99.90
31038;DHT22;17702;47.590;7.666;2023-09-19T07:14:33;19.50;99.90
31038;DHT22;17702;47.590;7.666;2023-09-19T07:16:59;19.50;99.90
31038;DHT22;17702;47.590;7.666;2023-09-19T07:19:26;19.50;99.90
31038;DHT22;17702;47.590;7.666;2023-09-19T07:21:53;19.50;99.90
31038;DHT22;17702;47.590;7.666;2023-09-19T07:24:19;19.60;99.90
31038;DHT22;17702;47.590;7.666;2023-09-19T07:26:46;19.60;99.90
31038;DHT22;17702;47.590;7.666;2023-09-19T07:29:12;19.60;99.90
31038;DHT22;17702;47.590;7.666;2023-09-19T07:31:37;19.70;99.90
31038;DHT22;17702;47.590;7.666;2023-09-19T07:34:03;19.70;99.90
31038;DHT22;17702;47.590;7.666;2023-09-19T07:36:29;19.80;99.90
31038;DHT22;17702;47.590;7.666;2023-09-19T07:38:55;19.80;99.90
31038;DHT22;17702;47.590;7.666;2023-09-19T07:41:23;19.80;99.90
31038;DHT22;17702;47.590;7.666;2023-09-19T07:43:49;19.70;99.90
31038;DHT22;17702;47.590;7.666;2023-09-19T07:46:15;19.80;99.90
31038;DHT22;17702;47.590;7.666;2023-09-19T07:48:40;19.80;99.90
31038;DHT22;17702;47.590;7.666;2023-09-19T07:51:09;20.00;99.90
31038;DHT22;17702;47.590;7.666;2023-09-19T07:53:36;19.90;99.90
31038;DHT22;17702;47.590;7.666;2023-09-19T07:56:09;20.00;99.90
31038;DHT22;17702;47.590;7.666;2023-09-19T07:58:35;20.10;99.90
31038;DHT22;17702;47.590;7.666;2023-09-19T08:01:06;20.10;99.90
31038;DHT22;17702;47.590;7.666;2023-09-19T08:03:32;20.20;99.90
31038;DHT22;17702;47.590;7.666;2023-09-19T08:06:00;20.20;99.90
31038;DHT22;17702;47.590;7.666;2023-09-19T08:08:26;20.20;99.90
31038;DHT22;17702;47.590;7.666;2023-09-19T08:10:56;20.30;99.90
31038;DHT22;17702;47.590;7.666;2023-09-19T08:13:25;20.30;99.90
31038;DHT22;17702;47.590;7.666;2023-09-19T08:15:51;20.30;99.90
31038;DHT22;17702;47.590;7.666;2023-09-19T08:18:18;20.40;99.90
31038;DHT22;17702;47.590;7.666;2023-09-19T08:20:49;20.40;99.90
31038;DHT22;17702;47.590;7.666;2023-09-19T08:23:16;20.30;99.90
31038;DHT22;17702;47.590;7.666;2023-09-19T08:25:42;20.20;99.90
31038;DHT22;17702;47.590;7.666;2023-09-19T08:28:08;20.20;99.90
31038;DHT22;17702;47.590;7.666;2023-09-19T08:30:34;20.20;99.90
31038;DHT22;17702;47.590;7.666;2023-09-19T08:33:00;20.20;99.90
31038;DHT22;17702;47.590;7.666;2023-09-19T08:35:27;20.10;99.90
31038;DHT22;17702;47.590;7.666;2023-09-19T08:37:52;20.20;99.90
31038;DHT22;17702;47.590;7.666;2023-09-19T08:40:18;20.20;99.90
31038;DHT22;17702;47.590;7.666;2023-09-19T08:42:48;20.30;99.90
31038;DHT22;17702;47.590;7.666;2023-09-19T08:45:14;20.30;99.90
31038;DHT22;17702;47.590;7.666;2023-09-19T08:47:46;20.40;99.90
31038;DHT22;17702;47.590;7.666;2023-09-19T08:50:26;20.30;99.90
31038;DHT22;17702;47.590;7.666;2023-09-19T08:52:55;20.40;99.90
31038;DHT22;17702;47.590;7.666;2023-09-19T08:55:28;20.30;99.90
31038;DHT22;17702;47.590;7.666;2023-09-19T08:58:10;20.30;99.90
31038;DHT22;17702;47.590;7.666;2023-09-19T09:00:36;20.50;99.90
31038;DHT22;17702;47.590;7.666;2023-09-19T09:03:03;20.70;99.90
31038;DHT22;17702;47.590;7.666;2023-09-19T09:05:32;20.80;99.90
31038;DHT22;17702;47.590;7.666;2023-09-19T09:07:58;20.80;99.90
31038;DHT22;17702;47.590;7.666;2023-09-19T09:10:25;20.80;99.80
31038;DHT22;17702;47.590;7.666;2023-09-19T09:12:54;20.70;99.90
31038;DHT22;17702;47.590;7.666;2023-09-19T09:15:23;20.80;99.90
31038;DHT22;17702;47.590;7.666;2023-09-19T09:17:50;20.90;99.90
31038;DHT22;17702;47.590;7.666;2023-09-19T09:20:18;21.00;99.90
31038;DHT22;17702;47.590;7.666;2023-09-19T09:22:54;21.30;99.90
31038;DHT22;17702;47.590;7.666;2023-09-19T09:25:21;21.50;99.40
31038;DHT22;17702;47.590;7.666;2023-09-19T09:28:19;21.70;99.80
31038;DHT22;17702;47.590;7.666;2023-09-19T09:30:45;21.90;99.60
31038;DHT22;17702;47.590;7.666;2023-09-19T09:33:12;22.10;97.90
31038;DHT22;17702;47.590;7.666;2023-09-19T09:38:23;22.20;97.80
31038;DHT22;17702;47.590;7.666;2023-09-19T09:40:57;22.40;97.20
31038;DHT22;17702;47.590;7.666;2023-09-19T09:43:36;22.50;96.80
31038;DHT22;17702;47.590;7.666;2023-09-19T09:46:13;22.60;97.30
31038;DHT22;17702;47.590;7.666;2023-09-19T09:48:56;22.60;97.80
31038;DHT22;17702;47.590;7.666;2023-09-19T09:51:59;22.80;96.40
31038;DHT22;17702;47.590;7.666;2023-09-19T09:54:29;22.80;94.70
31038;DHT22;17702;47.590;7.666;2023-09-19T09:57:08;22.70;95.10
31038;DHT22;17702;47.590;7.666;2023-09-19T10:02:40;22.90;94.50
31038;DHT22;17702;47.590;7.666;2023-09-19T10:05:20;23.00;95.00
31038;DHT22;17702;47.590;7.666;2023-09-19T10:07:49;23.00;94.00
31038;DHT22;17702;47.590;7.666;2023-09-19T10:13:07;23.00;94.90
31038;DHT22;17702;47.590;7.666;2023-09-19T10:15:34;23.10;93.30
31038;DHT22;17702;47.590;7.666;2023-09-19T10:18:04;23.30;92.50
31038;DHT22;17702;47.590;7.666;2023-09-19T10:20:30;23.40;93.60
31038;DHT22;17702;47.590;7.666;2023-09-19T10:23:04;23.50;93.70
31038;DHT22;17702;47.590;7.666;2023-09-19T10:25:37;23.60;93.20
31038;DHT22;17702;47.590;7.666;2023-09-19T10:28:06;23.40;93.20
31038;DHT22;17702;47.590;7.666;2023-09-19T10:30:43;23.40;93.50
31038;DHT22;17702;47.590;7.666;2023-09-19T10:33:20;23.40;93.80
31038;DHT22;17702;47.590;7.666;2023-09-19T10:35:49;23.50;93.00
31038;DHT22;17702;47.590;7.666;2023-09-19T10:38:23;23.60;93.10
31038;DHT22;17702;47.590;7.666;2023-09-19T10:40:51;23.60;94.00
31038;DHT22;17702;47.590;7.666;2023-09-19T10:43:18;23.60;93.20
31038;DHT22;17702;47.590;7.666;2023-09-19T10:45:49;23.70;92.40
31038;DHT22;17702;47.590;7.666;2023-09-19T10:48:16;23.70;92.40
31038;DHT22;17702;47.590;7.666;2023-09-19T10:50:53;23.70;91.40
31038;DHT22;17702;47.590;7.666;2023-09-19T10:53:20;23.70;91.70
31038;DHT22;17702;47.590;7.666;2023-09-19T10:55:58;23.80;90.90
31038;DHT22;17702;47.590;7.666;2023-09-19T10:58:31;24.00;90.00
31038;DHT22;17702;47.590;7.666;2023-09-19T11:01:04;24.00;90.40
31038;DHT22;17702;47.590;7.666;2023-09-19T11:03:41;24.20;91.20
31038;DHT22;17702;47.590;7.666;2023-09-19T11:06:17;24.20;89.50
31038;DHT22;17702;47.590;7.666;2023-09-19T11:11:46;23.80;91.50
31038;DHT22;17702;47.590;7.666;2023-09-19T11:30:35;23.50;90.30
31038;DHT22;17702;47.590;7.666;2023-09-19T11:36:03;23.50;90.60
31038;DHT22;17702;47.590;7.666;2023-09-19T11:46:17;23.50;90.80
31038;DHT22;17702;47.590;7.666;2023-09-19T11:48:48;23.60;89.80
31038;DHT22;17702;47.590;7.666;2023-09-19T11:51:19;23.40;91.00
31038;DHT22;17702;47.590;7.666;2023-09-19T11:53:47;23.30;90.50
31038;DHT22;17702;47.590;7.666;2023-09-19T11:56:19;23.20;90.90
31038;DHT22;17702;47.590;7.666;2023-09-19T11:58:46;23.20;91.20
31038;DHT22;17702;47.590;7.666;2023-09-19T12:01:21;23.30;91.30
31038;DHT22;17702;47.590;7.666;2023-09-19T12:03:47;23.40;92.10
31038;DHT22;17702;47.590;7.666;2023-09-19T12:06:19;23.40;92.10
31038;DHT22;17702;47.590;7.666;2023-09-19T12:08:47;23.40;90.30
31038;DHT22;17702;47.590;7.666;2023-09-19T12:11:15;23.40;91.60
31038;DHT22;17702;47.590;7.666;2023-09-19T12:13:45;23.50;90.50
31038;DHT22;17702;47.590;7.666;2023-09-19T12:16:21;23.40;90.60
31038;DHT22;17702;47.590;7.666;2023-09-19T12:18:48;23.50;91.40
31038;DHT22;17702;47.590;7.666;2023-09-19T12:21:31;23.60;90.40
31038;DHT22;17702;47.590;7.666;2023-09-19T12:24:13;23.50;90.40
31038;DHT22;17702;47.590;7.666;2023-09-19T12:26:43;23.50;90.20
31038;DHT22;17702;47.590;7.666;2023-09-19T12:29:21;23.70;90.90
31038;DHT22;17702;47.590;7.666;2023-09-19T12:31:48;23.80;87.10
31038;DHT22;17702;47.590;7.666;2023-09-19T12:34:23;23.90;90.10
31038;DHT22;17702;47.590;7.666;2023-09-19T12:37:10;24.20;88.00
31038;DHT22;17702;47.590;7.666;2023-09-19T12:40:00;24.50;85.70
31038;DHT22;17702;47.590;7.666;2023-09-19T12:42:39;24.60;86.70
31038;DHT22;17702;47.590;7.666;2023-09-19T12:45:07;24.80;86.30
31038;DHT22;17702;47.590;7.666;2023-09-19T12:47:34;24.80;84.00
31038;DHT22;17702;47.590;7.666;2023-09-19T12:50:14;24.80;84.20
31038;DHT22;17702;47.590;7.666;2023-09-19T12:52:44;24.70;82.70
31038;DHT22;17702;47.590;7.666;2023-09-19T12:55:22;24.70;84.60
31038;DHT22;17702;47.590;7.666;2023-09-19T13:00:32;24.50;82.10
31038;DHT22;17702;47.590;7.666;2023-09-19T13:08:27;24.20;83.70
31038;DHT22;17702;47.590;7.666;2023-09-19T13:13:33;23.80;84.00
31038;DHT22;17702;47.590;7.666;2023-09-19T13:15:59;23.90;84.80
31038;DHT22;17702;47.590;7.666;2023-09-19T13:18:27;24.00;85.10
31038;DHT22;17702;47.590;7.666;2023-09-19T13:21:12;24.10;83.50
31038;DHT22;17702;47.590;7.666;2023-09-19T13:23:50;24.30;86.10
31038;DHT22;17702;47.590;7.666;2023-09-19T13:26:16;24.50;81.30
31038;DHT22;17702;47.590;7.666;2023-09-19T13:28:41;24.70;84.50
31038;DHT22;17702;47.590;7.666;2023-09-19T13:31:09;25.10;83.90
31038;DHT22;17702;47.590;7.666;2023-09-19T13:33:43;25.40;78.50
31038;DHT22;17702;47.590;7.666;2023-09-19T13:36:09;25.60;80.10
31038;DHT22;17702;47.590;7.666;2023-09-19T13:38:35;25.80;78.50
31038;DHT22;17702;47.590;7.666;2023-09-19T13:41:00;25.90;77.10
31038;DHT22;17702;47.590;7.666;2023-09-19T13:43:27;26.00;77.30
31038;DHT22;17702;47.590;7.666;2023-09-19T13:45:54;26.10;78.00
31038;DHT22;17702;47.590;7.666;2023-09-19T13:48:20;26.20;79.00
31038;DHT22;17702;47.590;7.666;2023-09-19T13:50:45;26.30;76.10
31038;DHT22;17702;47.590;7.666;2023-09-19T13:53:11;26.40;75.40
31038;DHT22;17702;47.590;7.666;2023-09-19T13:55:37;26.50;74.50
31038;DHT22;17702;47.590;7.666;2023-09-19T13:58:03;26.50;73.80
31038;DHT22;17702;47.590;7.666;2023-09-19T14:00:32;26.50;74.40
31038;DHT22;17702;47.590;7.666;2023-09-19T14:03:00;26.60;74.50
31038;DHT22;17702;47.590;7.666;2023-09-19T14:05:26;26.70;70.80
31038;DHT22;17702;47.590;7.666;2023-09-19T14:07:53;26.70;73.60
31038;DHT22;17702;47.590;7.666;2023-09-19T14:10:21;26.60;69.70
31038;DHT22;17702;47.590;7.666;2023-09-19T14:12:47;26.70;71.00
31038;DHT22;17702;47.590;7.666;2023-09-19T14:15:13;26.70;69.10
31038;DHT22;17702;47.590;7.666;2023-09-19T14:17:40;26.70;68.80
31038;DHT22;17702;47.590;7.666;2023-09-19T14:20:08;26.40;69.00
31038;DHT22;17702;47.590;7.666;2023-09-19T14:22:36;26.30;68.40
31038;DHT22;17702;47.590;7.666;2023-09-19T14:25:05;26.20;66.70
31038;DHT22;17702;47.590;7.666;2023-09-19T14:27:30;26.20;69.50
31038;DHT22;17702;47.590;7.666;2023-09-19T14:29:56;26.30;68.20
31038;DHT22;17702;47.590;7.666;2023-09-19T14:32:23;26.30;68.90
31038;DHT22;17702;47.590;7.666;2023-09-19T14:34:48;26.30;68.50
31038;DHT22;17702;47.590;7.666;2023-09-19T14:37:14;26.30;68.70
31038;DHT22;17702;47.590;7.666;2023-09-19T14:39:41;26.20;69.00
31038;DHT22;17702;47.590;7.666;2023-09-19T14:42:10;26.30;68.50
31038;DHT22;17702;47.590;7.666;2023-09-19T14:44:36;26.20;68.20
31038;DHT22;17702;47.590;7.666;2023-09-19T14:47:03;26.10;66.40
31038;DHT22;17702;47.590;7.666;2023-09-19T14:49:35;26.10;67.90
31038;DHT22;17702;47.590;7.666;2023-09-19T14:52:07;26.00;68.10
31038;DHT22;17702;47.590;7.666;2023-09-19T14:54:32;26.00;66.80
31038;DHT22;17702;47.590;7.666;2023-09-19T14:56:59;26.00;67.70
31038;DHT22;17702;47.590;7.666;2023-09-19T14:59:31;25.90;68.00
31038;DHT22;17702;47.590;7.666;2023-09-19T15:01:57;25.80;67.20
31038;DHT22;17702;47.590;7.666;2023-09-19T15:04:23;25.80;68.90
31038;DHT22;17702;47.590;7.666;2023-09-19T15:06:49;25.80;69.10
31038;DHT22;17702;47.590;7.666;2023-09-19T15:09:16;25.80;66.10
31038;DHT22;17702;47.590;7.666;2023-09-19T15:11:44;25.90;68.00
31038;DHT22;17702;47.590;7.666;2023-09-19T15:14:10;25.80;66.40
31038;DHT22;17702;47.590;7.666;2023-09-19T15:16:35;25.80;69.50
31038;DHT22;17702;47.590;7.666;2023-09-19T15:19:01;25.60;68.00
31038;DHT22;17702;47.590;7.666;2023-09-19T15:21:26;25.50;68.10
31038;DHT22;17702;47.590;7.666;2023-09-19T15:23:52;25.50;68.50
31038;DHT22;17702;47.590;7.666;2023-09-19T15:26:18;25.50;67.30
31038;DHT22;17702;47.590;7.666;2023-09-19T15:28:47;25.40;67.20
31038;DHT22;17702;47.590;7.666;2023-09-19T15:31:13;25.40;69.70
31038;DHT22;17702;47.590;7.666;2023-09-19T15:33:39;25.40;70.60
31038;DHT22;17702;47.590;7.666;2023-09-19T15:36:06;25.40;68.60
31038;DHT22;17702;47.590;7.666;2023-09-19T15:41:26;25.20;68.90
31038;DHT22;17702;47.590;7.666;2023-09-19T15:43:52;25.20;68.30
31038;DHT22;17702;47.590;7.666;2023-09-19T15:46:19;25.10;69.50
31038;DHT22;17702;47.590;7.666;2023-09-19T15:48:45;25.10;69.10
31038;DHT22;17702;47.590;7.666;2023-09-19T15:51:11;25.10;69.20
31038;DHT22;17702;47.590;7.666;2023-09-19T15:53:45;25.10;69.10
31038;DHT22;17702;47.590;7.666;2023-09-19T15:56:11;24.90;69.30
31038;DHT22;17702;47.590;7.666;2023-09-19T15:58:37;24.90;69.10
31038;DHT22;17702;47.590;7.666;2023-09-19T16:01:08;24.90;71.10
31038;DHT22;17702;47.590;7.666;2023-09-19T16:03:37;24.80;70.30
31038;DHT22;17702;47.590;7.666;2023-09-19T16:06:08;24.80;69.50
31038;DHT22;17702;47.590;7.666;2023-09-19T16:08:35;24.70;70.70
31038;DHT22;17702;47.590;7.666;2023-09-19T16:11:01;24.70;71.40
31038;DHT22;17702;47.590;7.666;2023-09-19T16:13:28;24.60;70.80
31038;DHT22;17702;47.590;7.666;2023-09-19T16:15:54;24.40;70.90
31038;DHT22;17702;47.590;7.666;2023-09-19T16:18:19;24.40;71.80
31038;DHT22;17702;47.590;7.666;2023-09-19T16:20:45;24.40;73.20
31038;DHT22;17702;47.590;7.666;2023-09-19T16:23:11;24.30;73.40
31038;DHT22;17702;47.590;7.666;2023-09-19T16:25:37;24.30;74.80
31038;DHT22;17702;47.590;7.666;2023-09-19T16:28:03;24.20;74.40
31038;DHT22;17702;47.590;7.666;2023-09-19T16:30:31;24.20;75.50
31038;DHT22;17702;47.590;7.666;2023-09-19T16:32:57;24.10;74.20
31038;DHT22;17702;47.590;7.666;2023-09-19T16:35:23;23.90;73.70
31038;DHT22;17702;47.590;7.666;2023-09-19T16:37:48;23.90;74.70
31038;DHT22;17702;47.590;7.666;2023-09-19T16:40:14;23.90;76.10
31038;DHT22;17702;47.590;7.666;2023-09-19T16:42:40;23.70;74.70
31038;DHT22;17702;47.590;7.666;2023-09-19T16:45:07;23.60;74.80
31038;DHT22;17702;47.590;7.666;2023-09-19T16:47:33;23.50;75.20